Latest Weather Observations for Parawa West

IDS60901

Issued at 3:11 pm CST Tuesday 26 September 2017 (issued every 10 minutes, with the page automatically refreshed every 10 minutes)

About weather observations | Map of Adelaide area stations | Latest observations for Adelaide area | Other Formats
Station Details ID: 023875 Name: SECOND VALLEY FOREST AWS Lat: -35.57 Lon: 138.29 Height: 341.0 m
Data from the previous 72 hours. | See also: Recent months at Parawa West
Date/Time
CST
Temp
°C
App
Temp
°C
Dew
Point
°C
Rel
Hum
%
Delta-T
°C
Wind Press
QNH
hPa
Press
MSL
hPa
Rain since
9am
mm
Dir  Spd
km/h
Gust
km/h
Spd
kts
Gust
kts
26/03:00pm 15.6 9.5 8.1 61 3.9 ENE 30 39 16 21 1009.6 1009.6 0.2
26/02:30pm 15.2 9.5 8.4 64 3.5 E 28 41 15 22 1009.7 1009.7 0.2
26/02:00pm 15.0 10.4 8.0 63 3.6 ENE 22 30 12 16 1010.6 1010.6 0.2
26/01:30pm 13.9 9.6 7.9 67 3.0 ENE 20 26 11 14 1011.5 1011.5 0.2
26/01:00pm 13.4 8.6 7.4 67 3.0 ENE 22 32 12 17 1012.3 1012.3 0.2
26/12:30pm 12.5 8.0 6.8 68 2.8 ENE 20 30 11 16 1012.3 1012.3 0.0
26/12:00pm 12.5 8.0 6.8 68 2.8 ENE 20 33 11 18 1013.0 1013.0 0.0
26/11:30am 12.6 7.8 7.3 70 2.6 ENE 22 32 12 17 1012.8 1012.8 0.0
26/11:00am 11.5 7.1 6.6 72 2.4 E 19 30 10 16 1013.0 1013.0 0.0
26/10:30am 12.0 7.8 7.3 73 2.3 ENE 19 26 10 14 1013.9 1014.0 0.0
26/10:00am 11.4 7.1 6.9 74 2.2 ENE 19 32 10 17 1014.6 1014.6 0.0
26/09:30am 10.5 4.8 6.6 77 1.9 ENE 26 37 14 20 1014.7 1014.7 0.0
26/09:00am 9.9 3.0 6.4 79 1.7 ENE 32 39 17 21 1014.6 1014.6 0.2
26/08:30am 9.7 3.9 6.2 79 1.6 ENE 26 37 14 20 1015.2 1015.2 0.2
26/08:00am 8.8 2.8 5.2 78 1.6 ENE 26 39 14 21 1015.6 1015.6 0.2
26/07:30am 7.9 1.8 5.0 82 1.3 ENE 26 33 14 18 1015.8 1015.8 0.2
26/07:00am 7.9 1.1 5.0 82 1.3 ENE 30 41 16 22 1015.0 1015.0 0.2
26/06:30am 7.3 0.9 5.0 85 1.0 ENE 28 35 15 19 1014.8 1014.8 0.2
26/06:00am 6.7 0.2 4.9 88 0.8 ENE 28 37 15 20 1014.3 1014.3 0.2
26/05:30am 6.9 0.9 5.2 89 0.8 ENE 26 32 14 17 1014.4 1014.4 0.2
26/05:00am 7.0 1.9 5.8 92 0.5 ENE 22 32 12 17 1014.4 1014.4 0.2
26/04:30am 7.2 1.4 6.1 93 0.5 E 26 32 14 17 1013.5 1013.5 0.2
26/04:00am 7.3 1.2 6.4 94 0.4 ENE 28 35 15 19 1013.5 1013.5 0.2
26/03:30am 7.3 1.9 6.4 94 0.4 ENE 24 32 13 17 1014.4 1014.4 0.2
26/03:00am 7.2 2.7 6.3 94 0.4 E 19 24 10 13 1014.7 1014.7 0.2
26/02:30am 6.9 3.1 5.7 92 0.5 ESE 15 19 8 10 1014.9 1014.9 0.2
26/02:00am 6.3 3.1 5.1 92 0.5 E 11 15 6 8 1015.4 1015.4 0.2
26/01:30am 6.4 3.6 5.0 91 0.6 E 9 13 5 7 1016.0 1016.0 0.2
26/01:00am 6.9 3.4 5.5 91 0.6 E 13 17 7 9 1016.0 1016.0 0.2
26/12:30am 7.0 3.5 5.5 90 0.7 ESE 13 17 7 9 1016.0 1016.0 0.2
26/12:00am 7.4 3.6 5.9 90 0.7 ESE 15 19 8 10 1016.0 1016.0 0.2
 
Date/Time
CST
Temp
°C
App
Temp
°C
Dew
Point
°C
Rel
Hum
%
Delta-T
°C
Wind Press
QNH
hPa
Press
MSL
hPa
Rain since
9am
mm
Dir  Spd
km/h
Gust
km/h
Spd
kts
Gust
kts
25/11:30pm 7.8 4.2 6.6 92 0.6 SE 15 20 8 11 1016.0 1016.0 0.2
25/11:00pm 7.4 4.0 6.0 91 0.6 ESE 13 15 7 8 1016.3 1016.3 0.2
25/10:30pm 7.5 4.1 6.1 91 0.6 SE 13 15 7 8 1016.4 1016.5 0.2
25/10:00pm 7.5 4.1 6.1 91 0.6 SE 13 15 7 8 1016.4 1016.5 0.2
25/09:30pm 7.6 4.3 6.2 91 0.6 SE 13 15 7 8 1016.2 1016.2 0.2
25/09:00pm 7.7 4.4 6.3 91 0.7 SE 13 15 7 8 1016.2 1016.2 0.2
25/08:30pm 7.8 4.5 6.6 92 0.6 SE 13 17 7 9 1016.0 1016.0 0.2
25/08:00pm 7.7 4.8 6.3 91 0.7 SE 11 15 6 8 1015.7 1015.7 0.2
25/07:30pm 7.6 4.6 6.1 90 0.7 SSE 11 13 6 7 1015.3 1015.3 0.2
25/07:00pm 7.8 4.8 6.1 89 0.8 SSE 11 13 6 7 1015.0 1015.0 0.2
25/06:30pm 8.5 5.3 6.8 89 0.8 S 13 17 7 9 1014.7 1014.7 0.2
25/06:00pm 9.2 5.3 7.0 86 1.1 S 17 20 9 11 1014.5 1014.5 0.2
25/05:30pm 10.0 6.2 7.4 84 1.3 SSE 17 22 9 12 1014.3 1014.3 0.2
25/05:00pm 10.4 6.1 7.1 80 1.6 SSE 19 24 10 13 1014.3 1014.3 0.2
25/04:30pm 11.0 7.3 7.9 81 1.5 S 17 22 9 12 1014.0 1014.1 0.2
25/04:00pm 11.4 7.9 8.6 83 1.4 SSW 17 20 9 11 1013.8 1013.8 0.2
25/03:30pm 11.9 8.9 9.3 84 1.3 SSE 15 20 8 11 1013.6 1013.6 0.2
25/03:00pm 11.9 9.0 9.6 86 1.2 S 15 20 8 11 1013.6 1013.6 0.2
25/02:30pm 11.8 8.6 9.9 88 1.0 S 17 24 9 13 1013.7 1013.7 0.2
25/02:00pm 11.7 9.2 9.6 87 1.1 SSE 13 20 7 11 1013.7 1013.7 0.2
25/01:30pm 11.7 10.1 10.1 90 0.8 SSE 9 13 5 7 1013.8 1013.8 0.2
25/01:00pm 11.3 8.5 10.0 92 0.7 S 15 19 8 10 1013.8 1013.8 0.2
25/12:30pm 11.1 8.5 9.4 89 0.9 S 13 17 7 9 1013.8 1013.8 0.2
25/12:00pm 13.0 10.9 9.6 80 1.8 SW 11 20 6 11 1013.8 1013.8 0.0
25/11:30am 11.5 8.9 7.8 78 1.8 WSW 11 17 6 9 1013.7 1013.7 0.0
25/11:00am 11.8 8.8 7.7 76 2.0 W 13 19 7 10 1013.6 1013.6 0.0
25/10:30am 12.2 10.2 8.7 79 1.8 SW 9 15 5 8 1013.5 1013.5 0.0
25/10:00am 11.1 8.5 7.8 80 1.6 WSW 11 19 6 10 1013.5 1013.5 0.0
25/09:30am 11.9 10.3 8.9 82 1.5 WSW 7 13 4 7 1013.3 1013.3 0.0
25/09:00am 10.7 8.2 8.3 85 1.2 W 11 17 6 9 1013.0 1013.0 8.2
25/08:30am 10.5 8.2 9.1 91 0.7 WSW 11 17 6 9 1012.5 1012.5 8.2
25/08:00am 10.4 8.2 9.5 94 0.5 SW 11 19 6 10 1011.8 1011.8 8.2
25/07:30am 9.6 7.7 9.1 97 0.3 WSW 9 13 5 7 1011.4 1011.3 8.2
25/07:00am 8.8 6.8 8.7 99 0.0 W 9 13 5 7 1011.2 1011.1 8.2
25/06:30am 8.2 6.4 8.1 99 0.0 W 7 9 4 5 1010.5 1010.5 8.2
25/06:00am 7.9 6.3 7.8 99 0.0 WNW 6 7 3 4 1010.1 1010.1 8.2
25/05:30am 8.4 6.3 8.3 99 0.0 W 9 15 5 8 1009.6 1009.6 8.0
25/05:00am 8.6 6.2 8.5 99 0.0 W 11 15 6 8 1009.5 1009.5 8.0
25/04:30am 8.8 5.7 8.7 99 0.0 W 15 24 8 13 1009.1 1009.1 8.0
25/04:00am 9.0 6.3 8.9 99 0.0 W 13 20 7 11 1009.1 1009.1 8.0
25/03:30am 9.0 6.3 8.9 99 0.0 WNW 13 20 7 11 1008.8 1008.7 8.0
25/03:00am 9.0 6.3 8.9 99 0.0 WNW 13 17 7 9 1008.6 1008.5 8.0
25/02:30am 8.7 5.1 8.4 98 0.1 WNW 17 26 9 14 1008.5 1008.4 8.0
25/02:00am 9.2 5.2 8.9 98 0.1 W 20 39 11 21 1008.4 1008.3 8.0
25/01:30am 9.4 7.2 9.3 99 0.1 WNW 11 24 6 13 1008.7 1008.6 7.2
25/01:00am 9.0 6.7 8.9 99 0.0 WNW 11 17 6 9 1008.9 1008.8 7.0
25/12:30am 9.3 5.9 9.2 99 0.1 WNW 17 24 9 13 1008.8 1008.7 7.0
25/12:00am 9.3 6.7 9.2 99 0.1 WNW 13 20 7 11 1008.7 1008.6 7.0
 
Date/Time
CST
Temp
°C
App
Temp
°C
Dew
Point
°C
Rel
Hum
%
Delta-T
°C
Wind Press
QNH
hPa
Press
MSL
hPa
Rain since
9am
mm
Dir  Spd
km/h
Gust
km/h
Spd
kts
Gust
kts
24/11:30pm 9.6 6.7 9.5 99 0.1 WNW 15 24 8 13 1008.8 1008.7 7.0
24/11:00pm 9.8 6.5 9.7 99 0.1 NW 17 30 9 16 1008.6 1008.5 7.0
24/10:30pm 9.4 6.4 9.3 99 0.1 WNW 15 22 8 12 1008.9 1008.8 5.8
24/10:00pm 9.6 6.3 9.5 99 0.1 WNW 17 22 9 12 1008.8 1008.7 5.8
24/09:30pm 9.6 5.7 9.5 99 0.1 WNW 20 37 11 20 1008.5 1008.4 5.8
24/09:00pm 9.6 5.7 9.5 99 0.1 WNW 20 32 11 17 1008.3 1008.2 5.2
24/08:30pm 10.0 5.8 9.7 98 0.2 WNW 22 35 12 19 1007.9 1007.9 3.8
24/08:00pm 9.9 5.2 9.4 97 0.3 WNW 24 35 13 19 1007.6 1007.6 3.6
24/07:30pm 10.3 5.3 9.5 95 0.4 WNW 26 44 14 24 1007.1 1007.1 3.2
24/07:00pm 10.2 5.1 9.3 94 0.5 WNW 26 41 14 22 1006.6 1006.6 3.2
24/06:30pm 10.0 4.6 9.4 96 0.3 WNW 28 43 15 23 1006.2 1006.1 3.2
24/06:05pm 10.0 4.2 9.5 97 0.3 WNW 30 52 16 28 1005.9 1005.8 3.2
24/06:00pm 10.0 4.2 9.5 97 0.3 WNW 30 46 16 25 1005.8 1005.7 3.2
24/05:51pm 10.0 4.6 9.5 97 0.3 WNW 28 46 15 25 1005.6 1005.5 3.0
24/05:30pm 9.8 4.0 9.3 97 0.3 WNW 30 44 16 24 1005.3 1005.2 2.8
24/05:00pm 10.4 5.0 9.6 95 0.4 WNW 28 48 15 26 1004.8 1004.8 1.6
24/04:30pm 9.6 1.9 8.8 95 0.4 WNW 39 61 21 33 1004.5 1004.5 1.2
24/04:07pm 10.9 5.1 9.5 91 0.7 WNW 30 50 16 27 1004.0 1004.0 0.8
24/04:00pm 11.1 5.8 10.0 93 0.6 WNW 28 46 15 25 1004.1 1004.1 0.8
24/03:30pm 10.2 3.7 8.8 91 0.7 WNW 33 65 18 35 1003.8 1003.7 0.6
24/03:29pm 10.3 3.7 8.7 90 0.8 WNW 33 65 18 35 1003.7 1003.6 0.6
24/03:00pm 10.3 4.6 9.7 96 0.3 WNW 30 48 16 26 1003.7 1003.6 0.6
24/02:34pm 10.3 3.2 7.9 85 1.2 WNW 35 54 19 29 1003.5 1003.4 0.0
24/02:30pm 10.7 3.2 7.9 83 1.4 WNW 37 54 20 29 1003.5 1003.4 0.0
24/02:01pm 12.1 4.8 7.4 73 2.3 NW 35 54 19 29 1003.3 1003.2 0.0
24/02:00pm 12.3 5.1 7.8 74 2.2 NW 35 52 19 28 1003.3 1003.2 0.0
24/01:30pm 12.2 4.2 7.5 73 2.3 WNW 39 59 21 32 1003.2 1003.1 0.0
24/01:00pm 12.0 4.9 8.1 77 2.0 WNW 35 59 19 32 1003.0 1002.9 0.0
24/12:30pm 12.3 3.9 7.4 72 2.4 WNW 41 61 22 33 1003.0 1002.9 0.0
24/12:00pm 11.5 4.2 7.4 76 2.0 WNW 35 59 19 32 1003.0 1002.9 0.0
24/11:30am 12.3 4.3 7.4 72 2.4 NW 39 59 21 32 1002.9 1002.8 0.0
24/11:00am 12.1 3.6 7.0 71 2.5 WNW 41 67 22 36 1002.7 1002.6 0.0
24/10:30am 12.5 3.7 7.2 70 2.6 WNW 43 63 23 34 1002.6 1002.5 0.0
24/10:00am 12.0 4.1 6.3 68 2.7 WNW 37 57 20 31 1002.6 1002.5 0.0
24/09:30am 11.9 2.8 5.8 66 2.9 NW 43 61 23 33 1002.6 1002.5 0.0
24/09:00am 11.7 3.3 5.6 66 2.9 WNW 39 61 21 33 1002.2 1002.1 4.0
24/08:30am 11.3 3.5 6.6 73 2.3 NW 37 57 20 31 1002.0 1001.9 4.0
24/08:00am 11.0 4.1 7.3 78 1.8 NW 33 52 18 28 1002.0 1001.9 4.0
24/07:31am 11.0 3.6 6.7 75 2.1 NW 35 56 19 30 1001.5 1001.5 4.0
24/07:30am 10.9 3.9 6.8 76 2.0 WNW 33 50 18 27 1001.6 1001.6 4.0
24/07:07am 10.6 3.8 7.1 79 1.7 WNW 32 50 17 27 1001.4 1001.3 4.0
24/07:00am 10.4 3.5 7.1 80 1.6 WNW 33 50 18 27 1001.3 1001.2 4.0
24/06:30am 10.5 4.1 7.0 79 1.7 WNW 30 52 16 28 1001.1 1001.0 4.0
24/06:01am 10.3 3.2 5.7 73 2.2 WNW 32 50 17 27 1001.0 1000.9 4.0
24/06:00am 10.4 3.2 5.8 73 2.2 WNW 33 50 18 27 1000.9 1000.8 4.0
24/05:30am 10.4 3.6 6.7 78 1.8 WNW 32 54 17 29 1000.7 1000.6 4.0
24/05:17am 10.4 3.5 7.3 81 1.5 WNW 33 54 18 29 1000.6 1000.5 4.0
24/05:00am 9.9 4.6 8.3 90 0.8 NW 26 43 14 23 1000.5 1000.4 4.0
24/04:57am 10.0 4.3 8.3 89 0.8 NW 28 48 15 26 1000.5 1000.4 4.0
24/04:30am 10.6 4.1 8.0 84 1.3 NW 32 46 17 25 1000.4 1000.3 4.0
24/04:00am 10.4 4.2 8.0 85 1.2 WNW 30 46 16 25 1000.5 1000.4 4.0
24/03:30am 10.6 4.7 9.0 90 0.8 WNW 30 50 16 27 1000.4 1000.3 4.0
24/03:14am 10.6 4.4 9.5 93 0.6 NW 32 50 17 27 1000.3 1000.2 4.0
24/03:00am 10.4 5.5 9.9 97 0.3 NW 26 46 14 25 1000.5 1000.4 4.0
24/02:43am 10.4 5.2 10.1 98 0.2 NW 28 46 15 25 1000.5 1000.4 4.0
24/02:30am 10.5 5.7 10.2 98 0.2 NW 26 41 14 22 1000.7 1000.6 4.0
24/02:00am 10.4 5.5 9.9 97 0.3 NW 26 43 14 23 1000.9 1000.8 4.0
24/01:40am 10.4 5.1 9.9 97 0.3 NW 28 50 15 27 1001.1 1001.0 4.0
24/01:30am 10.4 5.1 9.9 97 0.3 WNW 28 46 15 25 1001.3 1001.2 4.0
24/01:00am 9.9 4.9 9.6 98 0.2 WNW 26 44 14 24 1001.5 1001.5 4.0
24/12:30am 9.4 5.4 9.1 98 0.2 NW 20 33 11 18 1001.3 1001.2 4.0
24/12:00am 9.1 4.2 8.6 97 0.2 NW 24 37 13 20 1001.7 1001.7 4.0
 
Date/Time
CST
Temp
°C
App
Temp
°C
Dew
Point
°C
Rel
Hum
%
Delta-T
°C
Wind Press
QNH
hPa
Press
MSL
hPa
Rain since
9am
mm
Dir  Spd
km/h
Gust
km/h
Spd
kts
Gust
kts
23/11:39pm 8.5 2.4 8.1 97 0.2 WNW 30 48 16 26 1002.0 1001.9 3.8
23/11:30pm 8.7 1.3 8.4 98 0.1 WNW 37 52 20 28 1002.1 1002.0 3.8
23/11:07pm 11.2 5.2 10.7 97 0.3 NW 33 80 18 43 1002.2 1002.1 1.2
23/11:00pm 11.3 5.3 10.7 96 0.3 NW 33 54 18 29 1001.9 1001.8 0.8
23/10:34pm 11.5 6.5 10.9 96 0.3 NW 28 48 15 26 1002.0 1001.9 0.2
23/10:30pm 11.6 6.6 10.8 95 0.4 NW 28 44 15 24 1002.0 1001.9 0.2
23/10:16pm 11.6 6.0 10.3 92 0.7 NW 30 48 16 26 1002.1 1002.0 0.0
23/10:00pm 11.6 6.8 10.2 91 0.7 NW 26 46 14 25 1002.3 1002.2 0.0
23/09:30pm 11.7 6.8 9.9 89 0.9 NW 26 41 14 22 1002.6 1002.5 0.0
23/09:00pm 11.7 8.1 9.9 89 0.9 NW 19 28 10 15 1002.8 1002.7 0.0
23/08:30pm 11.7 6.6 9.1 84 1.3 NW 26 41 14 22 1002.9 1002.8 0.0
23/08:10pm 12.2 6.3 9.0 81 1.6 NW 30 50 16 27 1002.8 1002.7 0.0
23/08:00pm 12.1 6.5 8.9 81 1.6 NW 28 41 15 22 1002.8 1002.7 0.0
23/07:30pm 12.2 6.5 9.8 85 1.3 WNW 30 50 16 27 1002.5 1002.4 0.0
23/07:21pm 12.2 6.9 9.8 85 1.2 WNW 28 48 15 26 1002.4 1002.3 0.0
23/07:00pm 12.0 7.4 9.6 85 1.2 NW 24 44 13 24 1002.2 1002.1 0.0
23/06:30pm 12.0 6.9 9.2 83 1.4 WNW 26 37 14 20 1002.1 1002.0 0.0
23/06:00pm 12.3 6.0 9.7 84 1.4 NW 33 54 18 29 1001.9 1001.8 0.0
23/05:30pm 12.3 6.5 9.5 83 1.5 NW 30 50 16 27 1001.4 1001.3 0.0
23/05:00pm 12.4 7.2 10.3 87 1.1 WNW 28 50 15 27 1001.2 1001.1 0.0
23/04:58pm 12.2 7.0 10.3 88 1.0 WNW 28 50 15 27 1001.1 1001.0 0.0
23/04:30pm 12.7 6.6 9.7 82 1.6 WNW 32 48 17 26 1001.0 1000.9 0.0
23/04:12pm 12.8 7.2 10.0 83 1.5 WNW 30 59 16 32 1000.8 1000.7 0.0
23/04:00pm 12.9 7.7 10.1 83 1.5 WNW 28 46 15 25 1000.9 1000.8 0.0
23/03:30pm 13.1 7.2 10.3 83 1.5 WNW 32 56 17 30 1000.5 1000.4 0.0

Latest Capital City Observations: Canberra | Sydney | Melbourne | Brisbane | Adelaide | Perth | Hobart | Darwin

Other Formats:

Comma delimited format used in spreadsheet applications
http://www.bom.gov.au/fwo/IDS60901/IDS60901.94811.axf

JavaScript Object Notation format (JSON) in row-major order
http://www.bom.gov.au/fwo/IDS60901/IDS60901.94811.json